Impacts METAR Board
IDs:

KJFK - New York/Kennedy Int, NY, US

Updated at: 2100 UTC 21 May 2022
Potential Impact None Slight Moderate High
Time 21/09Z 21/10Z 21/11Z 21/12Z 21/13Z 21/14Z 21/15Z 21/16Z 21/17Z 21/18Z 21/19Z 21/20Z 21/21Z
Temp60 60 62 63 65 72 77 82 86 77 73 74 77
Dewpt60 60 61 63 64 66 68 69 69 68 65 64 65
Altim29.95 29.96 29.99 30.02 30.04 30.03 30.04 30.02 30.00 30.01 30.03 30.02 30.01
VIS0.25 0 0.13 0.13 0.5 4 7 10 10 8 7 8 9
CIG2 2 2 2 3 -- -- -- -- -- -- -- --
CoverOVXOVXOVXOVXBKNSCTSCTSCTFEWFEWFEWFEWSCT
FltCatLIFRLIFRLIFRLIFRLIFRMVFRVFRVFRVFRVFRVFRVFRVFR
WXFGFGFGFGBRHZ--------------
WDir00310320330300270260220200180160180
WSpd0 0 4 4 6 7 7 5 6 11 12 7 6
WGst-- -- -- -- -- -- -- -- -- -- -- -- --
Raw hourly METARs
KJFK 210851Z 00000KT 1/4SM R04R/1200V1400FT FG VV002 16/16 A2995 RMK AO2 TWR VIS 1/2 SLP141 T01560156 50003
KJFK 210951Z 00000KT 0SM R04R/1000V1400FT FG VV002 16/16 A2996 RMK AO2 SFC VIS 1/4 SLP144 T01560156
KJFK 211051Z 31004KT 1/8SM R04R/1200VP6000FT FG VV002 17/16 A2999 RMK AO2 SFC VIS 1/2 SLP153 T01670161
KJFK 211200Z 32004KT 1/8SM R04R/1800V2000FT FG VV002 17/17 A3002 RMK AO2 SFC VIS 1/2 T01720172
KJFK 211251Z 33006KT 1/2SM R04R/P6000FT BR FEW000 BKN003 18/18 A3004 RMK AO2 SFC VIS 1 1/2 SLP172 BR FEW000 T01830178
KJFK 211351Z 30007KT 4SM HZ FEW005 SCT250 22/19 A3003 RMK AO2 SLP170 T02220189
KJFK 211451Z 27007KT 7SM FEW016 SCT250 25/20 A3004 RMK AO2 SLP170 T02500200 51008
KJFK 211551Z 26005KT 10SM SCT250 28/21 A3002 RMK AO2 SLP167 T02780206
KJFK 211651Z 22006KT 10SM FEW250 30/21 A3000 RMK AO2 SLP159 T03000206
KJFK 211751Z 20011KT 8SM FEW250 25/20 A3001 RMK AO2 SLP163 T02500200 10306 20172 55007
KJFK 211851Z 18012KT 7SM FEW250 23/18 A3003 RMK AO2 SLP167 T02280183
KJFK 211951Z 16007KT 8SM FEW250 23/18 A3002 RMK AO2 SLP164 T02330178
KJFK 212051Z 18006KT 9SM SCT250 25/18 A3001 RMK AO2 SLP162 T02500183 58001



Page loaded:  21:10 UTC  |   02:10 PM Pacific  |   03:10 PM Mountain  |   04:10 PM Central  |   05:10 PM Eastern

 

ADVISORIES

FORECASTS

FORECASTS

OBSERVATIONS

USER TOOLS

ABOUT US